Saint Bernard Grove, Louisiana
Current Conditions -  °F | °C
As of 2:53 AM on Tuesday 21 Oct 2014 (Local Time) from KNEW Reporting Station
Clear Clear  
Wind Chill: 69°   Ceiling: Unl
Heat Index: 69°   Visibility: 10mi
Dew Point: 57°   Wind: 8mph
Humidity: 65%   Direction: 70°ENE
Pressure: 30.01"   Gusts: NA
Location:  29.9486°N, 89.8975°W
Report Text: KNEW 210753Z AUTO 07007KT 10SM CLR 21/14 A3001 RMK AO2 SLP154 T02060139 TSNO
Loading
Personal Weather Stations






























Interactive Weather Map
Tropical Storm Tracking
New forecast layout! Learn more

10-Day Weather Forecast

Advertisements
Track Severe Weather on mobile